Time;durP1;ratioP1;P1;durP2;ratioP2;P2;SDS_P1;SDS_P2;PMS_P1;PMS_P2;Temp;Humidity;BMP_temperature;BMP_pressure;BME280_temperature;BME280_humidity;BME280_pressure;Samples;Min_cycle;Max_cycle;Signal;HPM_P1;HPM_P2
2023/10/21 00:00:59;;;;;;;;;;;16.20;62.70;;;;;;5095409;28;20523;-71
2023/10/21 00:03:25;;;;;;;;;;;16.20;62.70;;;;;;5095522;28;19920;-71
2023/10/21 00:05:51;;;;;;;;;;;16.20;62.80;;;;;;5095446;28;20359;-71
2023/10/21 00:08:16;;;;;;;;;;;16.20;62.80;;;;;;5077078;28;19978;-71
2023/10/21 00:10:42;;;;;;;;;;;16.20;63.60;;;;;;5095249;28;19920;-71
2023/10/21 00:13:07;;;;;;;;;;;16.10;62.80;;;;;;5077149;28;20448;-71
2023/10/21 00:15:34;;;;;;;;;;;16.10;62.80;;;;;;5076835;28;19919;-72
2023/10/21 00:17:59;;;;;;;;;;;16.20;62.90;;;;;;5095281;28;19920;-72
2023/10/21 00:20:25;;;;;;;;;;;16.20;63.00;;;;;;5076824;28;20029;-72
2023/10/21 00:22:50;;;;;;;;;;;16.20;63.00;;;;;;5095050;28;19924;-72
2023/10/21 00:25:16;;;;;;;;;;;16.10;62.90;;;;;;5077138;28;19924;-71
2023/10/21 00:27:41;;;;;;;;;;;16.10;63.00;;;;;;5076755;28;20379;-72
2023/10/21 00:30:07;;;;;;;;;;;16.10;63.00;;;;;;5077121;28;20275;-71
2023/10/21 00:32:33;;;;;;;;;;;16.10;63.10;;;;;;5077036;28;20057;-71
2023/10/21 00:34:58;;;;;;;;;;;16.10;63.10;;;;;;5076655;28;19927;-71
2023/10/21 00:37:23;;;;;;;;;;;16.10;63.10;;;;;;5077025;28;19927;-72
2023/10/21 00:39:49;;;;;;;;;;;16.10;63.10;;;;;;5076580;28;19920;-71
2023/10/21 00:42:14;;;;;;;;;;;16.10;63.10;;;;;;5076381;28;19928;-72
2023/10/21 00:44:40;;;;;;;;;;;16.10;63.10;;;;;;5076445;28;20020;-72
2023/10/21 00:47:05;;;;;;;;;;;16.10;63.10;;;;;;5076126;28;19981;-72
2023/10/21 00:49:31;;;;;;;;;;;16.10;63.20;;;;;;5076709;28;20008;-71
2023/10/21 00:51:58;;;;;;;;;;;16.10;63.20;;;;;;5110112;28;19966;-72
2023/10/21 00:54:25;;;;;;;;;;;16.10;63.30;;;;;;5076460;28;19920;-72
2023/10/21 00:56:51;;;;;;;;;;;16.10;63.30;;;;;;5076462;28;20022;-72
2023/10/21 00:59:17;;;;;;;;;;;16.10;63.30;;;;;;5076466;28;19967;-71
2023/10/21 01:01:43;;;;;;;;;;;16.10;63.30;;;;;;5109951;28;19967;-71
2023/10/21 01:04:10;;;;;;;;;;;16.10;63.30;;;;;;5076051;28;19920;-71
2023/10/21 01:06:36;;;;;;;;;;;16.10;63.40;;;;;;5076048;28;19924;-72
2023/10/21 01:09:01;;;;;;;;;;;16.10;63.40;;;;;;5110191;28;19927;-72
2023/10/21 01:11:27;;;;;;;;;;;16.10;63.50;;;;;;5075887;28;20417;-72
2023/10/21 01:13:54;;;;;;;;;;;16.10;63.50;;;;;;5076171;28;20279;-72
2023/10/21 01:16:19;;;;;;;;;;;16.10;63.50;;;;;;5076067;28;20279;-72
2023/10/21 01:18:45;;;;;;;;;;;16.10;63.50;;;;;;5075945;28;19920;-72
2023/10/21 01:21:11;;;;;;;;;;;16.10;63.60;;;;;;5075995;28;20003;-73
2023/10/21 01:23:36;;;;;;;;;;;16.10;63.60;;;;;;5075661;28;19920;-72
2023/10/21 01:26:02;;;;;;;;;;;16.10;63.60;;;;;;5075602;28;19920;-72
2023/10/21 01:28:29;;;;;;;;;;;16.00;63.60;;;;;;5093699;28;19927;-71
2023/10/21 01:30:55;;;;;;;;;;;16.10;63.70;;;;;;5075791;28;19973;-72
2023/10/21 01:33:20;;;;;;;;;;;16.00;63.70;;;;;;5075729;28;20380;-73
2023/10/21 01:35:46;;;;;;;;;;;16.10;63.70;;;;;;5093853;28;20388;-72
2023/10/21 01:38:12;;;;;;;;;;;16.10;63.70;;;;;;5075342;28;19927;-72
2023/10/21 01:40:37;;;;;;;;;;;16.10;63.70;;;;;;5075668;28;19920;-72
2023/10/21 01:43:03;;;;;;;;;;;16.00;63.70;;;;;;5075330;28;20371;-71
2023/10/21 01:45:29;;;;;;;;;;;16.00;63.70;;;;;;5075612;28;20023;-71
2023/10/21 01:47:54;;;;;;;;;;;16.10;63.80;;;;;;5071461;28;19925;-72
2023/10/21 01:50:20;;;;;;;;;;;16.00;63.80;;;;;;5072050;28;20447;-72
2023/10/21 01:52:46;;;;;;;;;;;16.00;63.80;;;;;;5071760;28;19970;-71
2023/10/21 01:55:11;;;;;;;;;;;16.00;63.80;;;;;;5072037;28;19924;-72
2023/10/21 01:57:37;;;;;;;;;;;16.00;63.90;;;;;;5071753;28;20390;-72
2023/10/21 02:00:08;;;;;;;;;;;16.00;63.90;;;;;;5072902;28;19927;-72
2023/10/21 02:02:35;;;;;;;;;;;16.00;63.90;;;;;;5071472;28;20406;-72
2023/10/21 02:05:01;;;;;;;;;;;16.00;63.80;;;;;;5072954;28;19931;-71
2023/10/21 02:07:27;;;;;;;;;;;16.00;63.90;;;;;;5072902;28;19924;-72
2023/10/21 02:09:52;;;;;;;;;;;16.00;63.90;;;;;;5071443;28;19982;-72
2023/10/21 02:12:18;;;;;;;;;;;16.00;63.90;;;;;;5071928;28;20037;-71
2023/10/21 02:14:43;;;;;;;;;;;16.00;64.00;;;;;;5071326;28;20303;-71
2023/10/21 02:17:09;;;;;;;;;;;16.00;64.00;;;;;;5070865;28;19921;-72
2023/10/21 02:19:34;;;;;;;;;;;16.00;64.00;;;;;;5071373;28;19943;-72
2023/10/21 02:21:59;;;;;;;;;;;16.00;64.00;;;;;;5071663;28;20418;-72
2023/10/21 02:24:25;;;;;;;;;;;16.00;64.00;;;;;;5071298;28;19926;-72
2023/10/21 02:26:51;;;;;;;;;;;16.00;64.10;;;;;;5071184;28;19951;-72
2023/10/21 02:29:17;;;;;;;;;;;16.00;64.10;;;;;;5071582;28;19920;-71
2023/10/21 02:31:42;;;;;;;;;;;16.00;64.10;;;;;;5072516;28;19920;-71
2023/10/21 02:34:08;;;;;;;;;;;16.00;64.10;;;;;;5071370;28;19920;-71
2023/10/21 02:36:34;;;;;;;;;;;16.00;64.20;;;;;;5071219;28;19932;-72
2023/10/21 02:39:00;;;;;;;;;;;16.00;64.20;;;;;;5071121;28;19920;-71
2023/10/21 02:41:26;;;;;;;;;;;16.00;64.20;;;;;;5072381;28;19978;-72
2023/10/21 02:43:52;;;;;;;;;;;16.00;64.20;;;;;;5071235;28;19921;-71
2023/10/21 02:46:18;;;;;;;;;;;16.00;64.20;;;;;;5070708;28;19928;-73
2023/10/21 02:48:44;;;;;;;;;;;16.00;64.20;;;;;;5070947;28;19944;-72
2023/10/21 02:51:13;;;;;;;;;;;16.00;64.20;;;;;;5070881;28;19920;-72
2023/10/21 02:53:39;;;;;;;;;;;16.00;64.30;;;;;;5071346;28;19920;-72
2023/10/21 02:56:05;;;;;;;;;;;16.00;64.30;;;;;;5072282;28;20344;-71
2023/10/21 02:58:32;;;;;;;;;;;16.00;64.30;;;;;;5070972;28;19924;-71
2023/10/21 03:00:57;;;;;;;;;;;16.00;64.30;;;;;;5071200;28;19921;-72
2023/10/21 03:03:23;;;;;;;;;;;16.00;64.30;;;;;;5072122;28;19920;-72
2023/10/21 03:05:48;;;;;;;;;;;16.00;65.10;;;;;;5072096;28;20386;-72
2023/10/21 03:08:14;;;;;;;;;;;16.00;64.30;;;;;;5070859;28;19952;-72
2023/10/21 03:10:39;;;;;;;;;;;16.00;64.40;;;;;;5054379;28;19924;-72
2023/10/21 03:13:06;;;;;;;;;;;16.00;64.40;;;;;;5104809;28;20364;-72
2023/10/21 03:15:33;;;;;;;;;;;16.00;64.50;;;;;;5070724;28;20012;-72
2023/10/21 03:17:58;;;;;;;;;;;16.00;64.50;;;;;;5070639;28;19921;-72
2023/10/21 03:20:24;;;;;;;;;;;16.00;64.50;;;;;;5070676;28;19928;-73
2023/10/21 03:22:49;;;;;;;;;;;15.90;64.50;;;;;;5070972;28;19920;-72
2023/10/21 03:25:15;;;;;;;;;;;15.90;64.50;;;;;;5071049;28;19921;-72
2023/10/21 03:27:40;;;;;;;;;;;16.00;64.50;;;;;;5071884;28;20369;-71
2023/10/21 03:30:07;;;;;;;;;;;15.90;64.50;;;;;;5074653;28;19924;-72
2023/10/21 03:32:32;;;;;;;;;;;16.00;64.50;;;;;;5074694;28;20372;-72
2023/10/21 03:34:58;;;;;;;;;;;15.90;64.50;;;;;;5074361;28;19974;-72
2023/10/21 03:37:23;;;;;;;;;;;15.90;64.50;;;;;;5074623;28;19921;-72
2023/10/21 03:39:49;;;;;;;;;;;15.90;64.60;;;;;;5074327;28;20292;-72
2023/10/21 03:42:14;;;;;;;;;;;15.90;64.60;;;;;;5074469;28;19920;-71
2023/10/21 03:44:40;;;;;;;;;;;15.90;64.60;;;;;;5074565;28;20363;-72
2023/10/21 03:47:06;;;;;;;;;;;15.90;64.60;;;;;;5088296;28;20367;-72
2023/10/21 03:49:31;;;;;;;;;;;15.90;64.70;;;;;;5095580;28;19920;-72
2023/10/21 03:51:57;;;;;;;;;;;15.90;64.70;;;;;;5095795;28;20036;-71
2023/10/21 03:54:22;;;;;;;;;;;15.90;64.70;;;;;;5077756;28;20020;-72
2023/10/21 03:56:48;;;;;;;;;;;15.90;64.80;;;;;;5077367;28;20355;-72
2023/10/21 03:59:13;;;;;;;;;;;15.90;64.80;;;;;;5077630;28;19920;-71
2023/10/21 04:01:39;;;;;;;;;;;15.90;64.80;;;;;;5077602;28;19920;-72
2023/10/21 04:04:05;;;;;;;;;;;15.90;64.80;;;;;;5095400;28;20395;-72
2023/10/21 04:06:30;;;;;;;;;;;15.90;64.80;;;;;;5095299;28;19935;-72
2023/10/21 04:08:56;;;;;;;;;;;15.90;65.50;;;;;;5077189;28;19920;-72
2023/10/21 04:11:21;;;;;;;;;;;15.90;64.80;;;;;;5095278;28;19920;-72
2023/10/21 04:13:47;;;;;;;;;;;15.90;64.80;;;;;;5077056;28;19926;-72
2023/10/21 04:16:13;;;;;;;;;;;15.90;64.80;;;;;;5077377;28;20245;-72
2023/10/21 04:18:38;;;;;;;;;;;15.90;64.90;;;;;;5076811;28;19967;-72
2023/10/21 04:21:04;;;;;;;;;;;15.90;64.90;;;;;;5076885;28;20357;-72
2023/10/21 04:23:29;;;;;;;;;;;15.90;64.90;;;;;;5095285;28;19920;-72
2023/10/21 04:25:55;;;;;;;;;;;15.90;64.90;;;;;;5076958;28;19990;-72
2023/10/21 04:28:20;;;;;;;;;;;15.90;65.00;;;;;;5094975;28;19935;-72
2023/10/21 04:30:46;;;;;;;;;;;15.90;64.90;;;;;;5076776;28;19924;-72
2023/10/21 04:33:12;;;;;;;;;;;15.90;65.00;;;;;;5076962;28;19927;-72
2023/10/21 04:35:37;;;;;;;;;;;15.80;65.00;;;;;;5076970;28;19920;-73
2023/10/21 04:38:03;;;;;;;;;;;15.80;65.10;;;;;;5076778;28;20387;-72
2023/10/21 04:40:29;;;;;;;;;;;15.90;65.10;;;;;;5076740;28;20101;-72
2023/10/21 04:42:54;;;;;;;;;;;15.90;65.10;;;;;;5076511;28;19931;-71
2023/10/21 04:45:20;;;;;;;;;;;15.80;65.10;;;;;;5094647;28;19972;-72
2023/10/21 04:47:45;;;;;;;;;;;15.90;65.10;;;;;;5076174;28;19931;-71
2023/10/21 04:50:11;;;;;;;;;;;15.90;65.10;;;;;;5076529;28;19920;-72
2023/10/21 04:52:37;;;;;;;;;;;15.90;65.10;;;;;;5076580;28;20379;-71
2023/10/21 04:55:03;;;;;;;;;;;15.80;65.10;;;;;;5076477;28;19977;-72
2023/10/21 04:57:29;;;;;;;;;;;15.90;65.10;;;;;;5076607;28;19924;-72
2023/10/21 04:59:54;;;;;;;;;;;15.90;65.10;;;;;;5076076;28;19969;-72
2023/10/21 05:02:20;;;;;;;;;;;15.90;65.20;;;;;;5076474;28;19989;-72
2023/10/21 05:04:46;;;;;;;;;;;15.80;65.10;;;;;;5094234;28;19974;-72
2023/10/21 05:07:11;;;;;;;;;;;15.80;65.20;;;;;;5076002;28;19963;-72
2023/10/21 05:09:37;;;;;;;;;;;15.80;65.20;;;;;;5075976;28;19924;-72
2023/10/21 05:12:03;;;;;;;;;;;15.80;65.20;;;;;;5075996;28;19924;-72
2023/10/21 05:14:28;;;;;;;;;;;15.80;65.20;;;;;;5076104;28;19973;-72
2023/10/21 05:16:54;;;;;;;;;;;15.80;65.20;;;;;;5093949;28;19928;-72
2023/10/21 05:19:19;;;;;;;;;;;15.80;65.20;;;;;;5075762;28;19920;-73
2023/10/21 05:21:45;;;;;;;;;;;15.80;65.20;;;;;;5076030;28;19920;-72
2023/10/21 05:24:10;;;;;;;;;;;15.80;65.20;;;;;;5059270;28;20127;-72
2023/10/21 05:26:37;;;;;;;;;;;15.80;65.30;;;;;;5093957;28;20117;-72
2023/10/21 05:29:02;;;;;;;;;;;15.80;65.30;;;;;;5075710;28;20393;-72
2023/10/21 05:31:28;;;;;;;;;;;15.80;65.30;;;;;;5075512;28;19956;-72
2023/10/21 05:33:57;;;;;;;;;;;15.80;65.30;;;;;;5094045;28;19920;-72
2023/10/21 05:36:23;;;;;;;;;;;15.80;65.30;;;;;;5075749;28;20422;-72
2023/10/21 05:38:49;;;;;;;;;;;15.80;65.40;;;;;;5075360;28;20049;-72
2023/10/21 05:41:15;;;;;;;;;;;15.80;65.40;;;;;;5075602;28;19967;-72
2023/10/21 05:43:40;;;;;;;;;;;15.80;65.40;;;;;;5075247;28;20399;-72
2023/10/21 05:46:06;;;;;;;;;;;15.80;65.40;;;;;;5075261;28;20291;-71
2023/10/21 05:48:31;;;;;;;;;;;15.80;65.40;;;;;;5075199;28;19924;-71
2023/10/21 05:51:01;;;;;;;;;;;15.80;65.40;;;;;;5093165;28;20444;-71
2023/10/21 05:53:26;;;;;;;;;;;15.80;65.40;;;;;;5075108;28;19927;-72
2023/10/21 05:55:53;;;;;;;;;;;15.80;65.40;;;;;;5075370;28;20368;-72
2023/10/21 05:58:19;;;;;;;;;;;15.80;65.50;;;;;;5075200;28;20200;-72
2023/10/21 06:00:44;;;;;;;;;;;15.80;65.50;;;;;;5075007;28;20249;-72
2023/10/21 06:03:10;;;;;;;;;;;15.80;65.50;;;;;;5093257;28;19924;-72
2023/10/21 06:05:35;;;;;;;;;;;15.80;65.50;;;;;;5093154;28;20426;-72
2023/10/21 06:08:01;;;;;;;;;;;15.80;65.50;;;;;;5074782;28;20014;-72
2023/10/21 06:10:26;;;;;;;;;;;15.80;65.50;;;;;;5074794;28;19920;-72
2023/10/21 06:12:52;;;;;;;;;;;15.80;65.50;;;;;;5074717;28;20015;-72
2023/10/21 06:15:17;;;;;;;;;;;15.80;65.50;;;;;;5075116;28;20052;-72
2023/10/21 06:17:45;;;;;;;;;;;15.80;65.50;;;;;;5074902;28;19931;-72
2023/10/21 06:20:10;;;;;;;;;;;15.80;65.60;;;;;;5074757;28;19924;-72
2023/10/21 06:22:37;;;;;;;;;;;15.90;65.70;;;;;;5108482;28;20045;-72
2023/10/21 06:25:04;;;;;;;;;;;15.80;65.70;;;;;;5075172;28;19970;-72
2023/10/21 06:27:29;;;;;;;;;;;15.80;65.70;;;;;;5074536;28;19928;-72
2023/10/21 06:29:55;;;;;;;;;;;15.80;65.60;;;;;;5074795;28;19965;-72
2023/10/21 06:32:20;;;;;;;;;;;15.80;65.60;;;;;;5074858;28;19924;-72
2023/10/21 06:34:46;;;;;;;;;;;15.80;65.70;;;;;;5074957;28;19927;-73
2023/10/21 06:37:12;;;;;;;;;;;15.80;65.70;;;;;;5074414;28;20391;-72
2023/10/21 06:39:37;;;;;;;;;;;15.80;65.70;;;;;;5074511;28;19967;-72
2023/10/21 06:42:03;;;;;;;;;;;15.80;65.70;;;;;;5074392;28;20302;-72
2023/10/21 06:44:29;;;;;;;;;;;15.80;65.70;;;;;;5074731;28;19920;-72
2023/10/21 06:46:55;;;;;;;;;;;15.80;65.70;;;;;;5092270;28;19931;-71
2023/10/21 06:49:20;;;;;;;;;;;15.80;65.70;;;;;;5074567;28;20460;-73
2023/10/21 06:51:49;;;;;;;;;;;15.80;65.80;;;;;;5074656;28;19920;-72
2023/10/21 06:54:15;;;;;;;;;;;15.80;65.80;;;;;;5092332;28;19966;-72
2023/10/21 06:56:40;;;;;;;;;;;15.80;65.80;;;;;;5108128;28;19960;-72
2023/10/21 06:59:06;;;;;;;;;;;15.80;65.80;;;;;;5074505;28;19920;-72
2023/10/21 07:01:32;;;;;;;;;;;15.80;65.80;;;;;;5074590;28;20291;-72
2023/10/21 07:03:57;;;;;;;;;;;15.80;65.80;;;;;;5095167;28;20283;-72
2023/10/21 07:06:23;;;;;;;;;;;15.80;65.90;;;;;;5078295;28;19920;-72
2023/10/21 07:08:49;;;;;;;;;;;15.80;65.90;;;;;;5078717;28;19920;-72
2023/10/21 07:11:14;;;;;;;;;;;15.80;65.90;;;;;;5096357;28;19973;-72
2023/10/21 07:13:41;;;;;;;;;;;15.80;65.90;;;;;;5078532;28;20375;-72
2023/10/21 07:16:07;;;;;;;;;;;15.80;65.90;;;;;;5078285;28;19924;-72
2023/10/21 07:18:33;;;;;;;;;;;15.80;65.90;;;;;;5078301;28;19927;-72
2023/10/21 07:20:58;;;;;;;;;;;15.80;66.70;;;;;;5078122;28;20290;-72
2023/10/21 07:23:24;;;;;;;;;;;15.80;65.90;;;;;;5096269;28;19966;-72
2023/10/21 07:25:50;;;;;;;;;;;15.80;65.90;;;;;;5077940;28;20011;-72
2023/10/21 07:28:15;;;;;;;;;;;15.80;66.70;;;;;;5077919;28;19976;-72
2023/10/21 07:30:41;;;;;;;;;;;15.80;65.90;;;;;;5095968;28;20367;-72
2023/10/21 07:33:06;;;;;;;;;;;15.80;65.90;;;;;;5078014;28;19927;-72
2023/10/21 07:35:32;;;;;;;;;;;15.80;65.90;;;;;;5077847;28;19942;-72
2023/10/21 07:37:57;;;;;;;;;;;15.80;65.90;;;;;;5095926;28;19965;-72
2023/10/21 07:40:23;;;;;;;;;;;15.80;65.90;;;;;;5077687;28;19924;-72
2023/10/21 07:42:49;;;;;;;;;;;15.80;65.90;;;;;;5095759;28;19920;-72
2023/10/21 07:45:14;;;;;;;;;;;15.80;65.90;;;;;;5077894;28;20382;-72
2023/10/21 07:47:41;;;;;;;;;;;15.90;66.00;;;;;;5077327;28;19928;-72
2023/10/21 07:50:07;;;;;;;;;;;15.80;65.90;;;;;;5077430;28;19973;-72
2023/10/21 07:52:35;;;;;;;;;;;15.90;66.00;;;;;;5077655;28;20371;-72
2023/10/21 07:55:00;;;;;;;;;;;15.90;65.90;;;;;;5077681;28;20072;-72
2023/10/21 07:57:26;;;;;;;;;;;15.80;65.90;;;;;;5077584;28;20014;-72
2023/10/21 07:59:52;;;;;;;;;;;15.90;66.00;;;;;;5077643;28;19923;-72
2023/10/21 08:02:18;;;;;;;;;;;15.90;66.00;;;;;;5077670;28;20378;-72
2023/10/21 08:04:44;;;;;;;;;;;15.90;66.00;;;;;;5077266;28;20378;-72
2023/10/21 08:07:10;;;;;;;;;;;15.90;66.00;;;;;;5095247;28;19977;-73
2023/10/21 08:09:38;;;;;;;;;;;15.90;65.90;;;;;;5077481;28;20018;-74
2023/10/21 08:12:03;;;;;;;;;;;15.90;66.00;;;;;;5077060;28;19920;-72
2023/10/21 08:14:31;;;;;;;;;;;15.90;66.00;;;;;;5076686;28;19920;-72
2023/10/21 08:16:57;;;;;;;;;;;15.90;66.00;;;;;;5077291;28;19963;-73
2023/10/21 08:19:24;;;;;;;;;;;15.90;65.90;;;;;;5110888;28;19920;-73
2023/10/21 08:21:50;;;;;;;;;;;15.90;65.90;;;;;;5077259;28;20287;-73
2023/10/21 08:24:15;;;;;;;;;;;15.90;65.90;;;;;;5095210;28;20291;-72
2023/10/21 08:26:41;;;;;;;;;;;15.90;66.00;;;;;;5094879;28;20433;-72
2023/10/21 08:29:06;;;;;;;;;;;15.90;66.00;;;;;;5077063;28;19924;-72
2023/10/21 08:31:33;;;;;;;;;;;15.90;65.90;;;;;;5076704;28;19920;-72
2023/10/21 08:33:58;;;;;;;;;;;15.90;65.90;;;;;;5110644;28;19920;-72
2023/10/21 08:36:24;;;;;;;;;;;15.90;66.00;;;;;;5094733;28;20083;-72
2023/10/21 08:38:50;;;;;;;;;;;15.90;65.90;;;;;;5094819;28;19927;-72
2023/10/21 08:41:16;;;;;;;;;;;16.00;66.00;;;;;;5094709;28;19920;-72
2023/10/21 08:43:45;;;;;;;;;;;15.90;66.00;;;;;;5094642;28;19927;-72
2023/10/21 08:46:11;;;;;;;;;;;16.00;66.00;;;;;;5110061;28;19924;-72
2023/10/21 08:48:36;;;;;;;;;;;15.90;66.10;;;;;;5110337;28;19995;-72
2023/10/21 08:51:02;;;;;;;;;;;15.90;66.10;;;;;;5094649;28;19927;-72
2023/10/21 08:53:31;;;;;;;;;;;16.00;66.10;;;;;;5076300;28;19927;-72
2023/10/21 08:55:57;;;;;;;;;;;16.00;66.10;;;;;;5076781;28;19920;-72
2023/10/21 08:58:28;;;;;;;;;;;16.00;66.20;;;;;;5076124;28;19920;-72
2023/10/21 09:00:54;;;;;;;;;;;15.90;66.20;;;;;;5094419;28;19924;-72
2023/10/21 09:03:19;;;;;;;;;;;16.00;66.20;;;;;;5076094;28;19921;-72
2023/10/21 09:06:01;;;;;;;;;;;16.00;66.20;;;;;;5076221;28;20240;-72
2023/10/21 09:08:29;;;;;;;;;;;16.00;66.20;;;;;;5109869;28;20298;-72
2023/10/21 09:10:57;;;;;;;;;;;16.00;66.20;;;;;;5076307;28;19920;-72
2023/10/21 09:13:28;;;;;;;;;;;16.00;66.30;;;;;;5110353;28;20325;-72
2023/10/21 09:15:53;;;;;;;;;;;16.00;66.40;;;;;;5110183;28;19920;-72
2023/10/21 09:18:19;;;;;;;;;;;16.00;66.40;;;;;;5093980;28;20291;-73
2023/10/21 09:20:47;;;;;;;;;;;16.00;66.40;;;;;;5075883;28;20011;-72
2023/10/21 09:23:13;;;;;;;;;;;16.00;66.40;;;;;;5093926;28;19920;-72
2023/10/21 09:25:38;;;;;;;;;;;16.00;66.40;;;;;;5075771;28;19920;-73
2023/10/21 09:28:04;;;;;;;;;;;16.00;66.40;;;;;;5074772;28;19924;-72
2023/10/21 09:30:30;;;;;;;;;;;16.00;66.50;;;;;;5075972;28;19946;-72
2023/10/21 09:33:11;;;;;;;;;;;16.10;66.50;;;;;;5075858;28;19920;-72
2023/10/21 09:35:36;;;;;;;;;;;16.00;66.50;;;;;;5075527;28;19927;-72
2023/10/21 09:38:18;;;;;;;;;;;16.00;66.60;;;;;;5075744;28;19920;-71
2023/10/21 09:40:44;;;;;;;;;;;16.00;66.60;;;;;;5075770;28;20249;-71
2023/10/21 09:43:11;;;;;;;;;;;16.00;66.60;;;;;;5075325;28;19965;-71
2023/10/21 09:45:37;;;;;;;;;;;16.00;66.60;;;;;;5075230;28;19920;-71
2023/10/21 09:48:05;;;;;;;;;;;16.00;66.60;;;;;;5075239;28;19971;-71
2023/10/21 09:50:31;;;;;;;;;;;16.00;66.60;;;;;;5093324;28;19924;-71
2023/10/21 09:53:05;;;;;;;;;;;16.00;66.70;;;;;;5075511;28;19920;-71
2023/10/21 09:55:31;;;;;;;;;;;16.00;66.80;;;;;;5075149;28;19924;-71
2023/10/21 09:57:57;;;;;;;;;;;16.00;66.70;;;;;;5075249;28;20108;-71
2023/10/21 10:00:24;;;;;;;;;;;16.00;66.80;;;;;;5075395;28;20010;-72
2023/10/21 10:02:53;;;;;;;;;;;16.00;66.80;;;;;;5075309;28;20290;-71
2023/10/21 10:05:20;;;;;;;;;;;16.00;66.90;;;;;;5093101;28;19920;-72
2023/10/21 10:07:46;;;;;;;;;;;16.00;66.90;;;;;;5093028;28;19970;-72
2023/10/21 10:10:13;;;;;;;;;;;16.00;66.90;;;;;;5093178;28;19924;-72
2023/10/21 10:12:40;;;;;;;;;;;16.00;67.00;;;;;;5075335;28;19920;-72
2023/10/21 10:15:27;;;;;;;;;;;16.00;67.10;;;;;;5092995;28;19920;-72
2023/10/21 10:17:53;;;;;;;;;;;16.00;67.10;;;;;;5074590;28;19920;-72
2023/10/21 10:20:21;;;;;;;;;;;16.00;67.20;;;;;;5092801;28;20037;-72
2023/10/21 10:22:49;;;;;;;;;;;16.00;67.20;;;;;;5108675;28;19927;-72
2023/10/21 10:25:23;;;;;;;;;;;16.00;67.20;;;;;;5074661;28;19953;-72
2023/10/21 10:27:55;;;;;;;;;;;16.00;67.20;;;;;;5108420;28;19931;-71
2023/10/21 10:30:20;;;;;;;;;;;16.10;67.30;;;;;;5092734;28;19931;-72
2023/10/21 10:32:49;;;;;;;;;;;16.10;67.40;;;;;;5092669;28;19924;-72
2023/10/21 10:35:37;;;;;;;;;;;16.10;67.40;;;;;;5108636;28;20295;-72
2023/10/21 10:38:03;;;;;;;;;;;16.10;67.40;;;;;;5074119;28;19921;-72
2023/10/21 10:40:38;;;;;;;;;;;16.10;67.50;;;;;;5092632;28;19920;-72
2023/10/21 10:43:10;;;;;;;;;;;16.10;67.50;;;;;;5092569;28;20361;-72
2023/10/21 10:45:36;;;;;;;;;;;16.10;67.20;;;;;;5074413;28;19920;-73
2023/10/21 10:48:04;;;;;;;;;;;16.10;67.50;;;;;;5107611;28;21286;-72
2023/10/21 10:50:30;;;;;;;;;;;16.10;67.50;;;;;;5108396;28;19945;-72
2023/10/21 10:52:56;;;;;;;;;;;16.10;67.50;;;;;;5074821;28;19920;-72
2023/10/21 10:55:22;;;;;;;;;;;16.10;67.50;;;;;;5074317;28;20286;-72
2023/10/21 10:57:48;;;;;;;;;;;16.10;67.50;;;;;;5074280;28;19920;-72
2023/10/21 11:00:20;;;;;;;;;;;16.20;67.50;;;;;;5108327;28;20253;-72
2023/10/21 11:02:46;;;;;;;;;;;16.20;67.50;;;;;;5092360;28;19923;-72
2023/10/21 11:05:16;;;;;;;;;;;16.10;67.40;;;;;;5092340;28;20404;-72
2023/10/21 11:07:41;;;;;;;;;;;16.20;67.50;;;;;;5074221;28;19967;-72
2023/10/21 11:10:07;;;;;;;;;;;16.10;67.40;;;;;;5074563;28;19971;-72
2023/10/21 11:12:33;;;;;;;;;;;16.20;67.50;;;;;;5092189;28;20311;-72
2023/10/21 11:15:00;;;;;;;;;;;16.10;67.30;;;;;;5092757;28;19978;-72
2023/10/21 11:17:26;;;;;;;;;;;16.10;67.30;;;;;;5107773;28;20436;-72
2023/10/21 11:19:51;;;;;;;;;;;16.10;67.30;;;;;;5074101;28;19920;-72
2023/10/21 11:22:21;;;;;;;;;;;16.20;67.40;;;;;;5074336;28;20283;-72
2023/10/21 11:24:47;;;;;;;;;;;16.10;67.40;;;;;;5107896;28;19920;-72
2023/10/21 11:27:13;;;;;;;;;;;16.10;67.30;;;;;;5074067;28;20015;-72
2023/10/21 11:29:38;;;;;;;;;;;16.10;67.30;;;;;;5074300;28;19920;-72
2023/10/21 11:32:09;;;;;;;;;;;16.10;67.20;;;;;;5074272;28;19920;-72
2023/10/21 11:34:35;;;;;;;;;;;16.10;67.20;;;;;;5073917;28;20363;-72
2023/10/21 11:37:00;;;;;;;;;;;16.10;67.30;;;;;;5092022;28;19924;-71
2023/10/21 11:39:26;;;;;;;;;;;16.10;67.20;;;;;;5074316;28;19924;-71
2023/10/21 11:41:53;;;;;;;;;;;16.10;67.30;;;;;;5073908;28;19920;-71
2023/10/21 11:44:26;;;;;;;;;;;16.10;67.30;;;;;;5107938;28;19943;-71
2023/10/21 11:46:56;;;;;;;;;;;16.10;67.30;;;;;;5073645;28;19947;-71
2023/10/21 11:49:23;;;;;;;;;;;16.10;67.30;;;;;;5107566;28;19974;-71
2023/10/21 11:51:49;;;;;;;;;;;16.10;68.10;;;;;;5077517;28;19927;-71
2023/10/21 11:54:32;;;;;;;;;;;16.10;67.30;;;;;;5077675;28;19920;-72
2023/10/21 12:22:30;;;;;;;;;;;16.20;67.40;;;;;;5088544;28;19921;-72
2023/10/21 12:28:12;;;;;;;;;;;16.20;67.40;;;;;;5130865;27;19919;-71
2023/10/21 12:38:41;;;;;;;;;;;16.20;67.40;;;;;;5129371;28;19927;-71
2023/10/21 12:41:16;;;;;;;;;;;16.20;67.50;;;;;;5129167;28;19919;-71
2023/10/21 12:43:45;;;;;;;;;;;16.20;67.40;;;;;;5129594;28;20010;-71
2023/10/21 12:46:18;;;;;;;;;;;16.20;67.40;;;;;;5129209;28;20279;-71
2023/10/21 12:48:47;;;;;;;;;;;16.20;67.30;;;;;;5129283;28;19919;-71
2023/10/21 12:51:15;;;;;;;;;;;16.20;67.30;;;;;;5129296;28;19920;-71
2023/10/21 12:53:41;;;;;;;;;;;16.20;67.30;;;;;;5128995;28;20123;-71
2023/10/21 12:56:07;;;;;;;;;;;16.20;67.30;;;;;;5129233;28;20018;-71
2023/10/21 12:58:33;;;;;;;;;;;16.20;67.30;;;;;;5128900;28;20386;-72
2023/10/21 13:00:59;;;;;;;;;;;16.20;67.30;;;;;;5129138;28;19919;-71
2023/10/21 13:03:24;;;;;;;;;;;16.20;67.40;;;;;;5130123;28;19926;-70
2023/10/21 13:05:52;;;;;;;;;;;16.20;67.30;;;;;;5128792;28;19923;-71
2023/10/21 13:08:17;;;;;;;;;;;16.20;67.30;;;;;;5128752;28;19920;-71
2023/10/21 13:10:43;;;;;;;;;;;16.20;67.40;;;;;;5128681;28;19927;-71
2023/10/21 13:13:11;;;;;;;;;;;16.20;67.30;;;;;;5130289;28;19938;-71
2023/10/21 13:15:36;;;;;;;;;;;16.20;67.30;;;;;;5129828;27;20267;-71
2023/10/21 13:18:03;;;;;;;;;;;16.20;67.30;;;;;;5128773;28;19926;-72
2023/10/21 13:20:29;;;;;;;;;;;16.20;67.20;;;;;;5128829;28;20389;-72
2023/10/21 13:22:54;;;;;;;;;;;16.30;67.30;;;;;;5128433;28;19926;-71
2023/10/21 13:25:20;;;;;;;;;;;16.20;67.20;;;;;;5128057;28;19924;-71
2023/10/21 13:27:46;;;;;;;;;;;16.20;67.20;;;;;;5162996;27;19965;-71
2023/10/21 13:30:13;;;;;;;;;;;16.20;67.20;;;;;;5162906;27;19965;-72
2023/10/21 13:32:41;;;;;;;;;;;16.20;67.20;;;;;;5128486;28;19919;-71
2023/10/21 13:35:09;;;;;;;;;;;16.30;67.20;;;;;;5163211;27;20000;-72
2023/10/21 13:37:37;;;;;;;;;;;16.30;67.20;;;;;;5120733;28;19967;-72
2023/10/21 13:40:12;;;;;;;;;;;16.30;67.20;;;;;;5114680;28;20007;-71
2023/10/21 13:42:38;;;;;;;;;;;16.20;67.10;;;;;;5114337;28;19920;-72
2023/10/21 13:45:05;;;;;;;;;;;16.30;67.20;;;;;;5114554;28;19919;-71
2023/10/21 13:47:31;;;;;;;;;;;16.20;67.10;;;;;;5114246;28;19919;-72
2023/10/21 13:49:57;;;;;;;;;;;16.30;67.20;;;;;;5148615;27;20346;-72
2023/10/21 13:52:25;;;;;;;;;;;16.30;67.10;;;;;;5114168;28;19919;-71
2023/10/21 13:54:50;;;;;;;;;;;16.30;67.10;;;;;;5148825;27;20355;-72
2023/10/21 13:57:16;;;;;;;;;;;16.20;67.10;;;;;;5115412;28;19919;-72
2023/10/21 13:59:45;;;;;;;;;;;16.20;67.10;;;;;;5114371;28;19938;-72
2023/10/21 14:02:11;;;;;;;;;;;16.30;67.10;;;;;;5097017;28;19919;-71
2023/10/21 14:04:36;;;;;;;;;;;16.30;67.10;;;;;;5115648;28;19920;-72
2023/10/21 14:07:02;;;;;;;;;;;16.30;67.20;;;;;;5113666;28;19924;-72
2023/10/21 14:09:28;;;;;;;;;;;16.30;67.20;;;;;;5114190;28;20430;-72
2023/10/21 14:11:54;;;;;;;;;;;16.30;67.20;;;;;;5114086;28;19966;-72
2023/10/21 14:14:20;;;;;;;;;;;16.30;67.10;;;;;;5114117;28;20367;-72
2023/10/21 14:16:46;;;;;;;;;;;16.30;67.20;;;;;;5115047;28;19973;-72
2023/10/21 14:19:12;;;;;;;;;;;16.30;67.10;;;;;;5114871;28;19920;-73
2023/10/21 14:21:37;;;;;;;;;;;16.30;67.10;;;;;;5113602;28;20018;-72
2023/10/21 14:24:03;;;;;;;;;;;16.30;67.10;;;;;;5114078;28;19919;-72
2023/10/21 14:26:28;;;;;;;;;;;16.30;67.10;;;;;;5113320;28;19924;-72
2023/10/21 14:28:55;;;;;;;;;;;16.30;67.10;;;;;;5113396;28;19920;-72
2023/10/21 14:31:26;;;;;;;;;;;16.30;67.20;;;;;;5113628;28;19924;-72
2023/10/21 14:33:51;;;;;;;;;;;16.30;67.20;;;;;;5112786;28;19995;-70
2023/10/21 14:36:17;;;;;;;;;;;16.30;67.20;;;;;;5112478;28;20334;-71
2023/10/21 14:38:43;;;;;;;;;;;16.30;67.50;;;;;;5114627;28;19919;-72
2023/10/21 14:41:09;;;;;;;;;;;16.30;67.50;;;;;;5111598;28;19920;-71
2023/10/21 14:43:35;;;;;;;;;;;16.30;67.50;;;;;;5112483;28;19972;-72
2023/10/21 14:46:00;;;;;;;;;;;16.30;67.40;;;;;;5112608;28;20370;-71
2023/10/21 14:48:26;;;;;;;;;;;16.30;67.50;;;;;;5111869;28;20435;-72